Time;durP1;ratioP1;P1;durP2;ratioP2;P2;SDS_P1;SDS_P2;PMS_P1;PMS_P2;Temp;Humidity;BMP_temperature;BMP_pressure;BME280_temperature;BME280_humidity;BME280_pressure;Samples;Min_cycle;Max_cycle;Signal;HPM_P1;HPM_P2
2023/08/24 00:00:12;;;;;;;;;;;24.00;1.00;;;;;;4916015;29;19998;-55
2023/08/24 00:02:38;;;;;;;;;;;24.00;1.00;;;;;;4916065;29;20455;-56
2023/08/24 00:05:05;;;;;;;;;;;24.00;1.00;;;;;;5105071;23;19923;-53
2023/08/24 00:07:32;;;;;;;;;;;24.00;1.00;;;;;;4916031;29;19923;-54
2023/08/24 00:09:59;;;;;;;;;;;24.00;1.00;;;;;;4915951;29;19930;-55
2023/08/24 00:12:25;;;;;;;;;;;24.00;1.00;;;;;;4915908;29;19931;-53
2023/08/24 00:14:52;;;;;;;;;;;24.00;1.00;;;;;;4915926;29;20137;-56
2023/08/24 00:17:19;;;;;;;;;;;24.00;1.00;;;;;;4915845;29;19930;-57
2023/08/24 00:19:46;;;;;;;;;;;24.00;1.00;;;;;;4915988;29;20013;-53
2023/08/24 00:22:13;;;;;;;;;;;24.00;1.00;;;;;;4915452;29;19929;-51
2023/08/24 00:24:40;;;;;;;;;;;24.00;1.00;;;;;;4915922;29;20384;-55
2023/08/24 00:27:06;;;;;;;;;;;24.00;1.00;;;;;;4915773;29;19933;-55
2023/08/24 00:29:33;;;;;;;;;;;24.00;1.00;;;;;;4898928;29;20279;-53
2023/08/24 00:32:00;;;;;;;;;;;24.00;1.00;;;;;;4915685;29;19923;-53
2023/08/24 00:34:27;;;;;;;;;;;23.90;1.00;;;;;;4988721;23;20898;-51
2023/08/24 00:36:53;;;;;;;;;;;23.90;1.00;;;;;;4870922;29;19924;-52
2023/08/24 00:39:20;;;;;;;;;;;23.90;1.00;;;;;;4880048;29;19924;-55
2023/08/24 00:41:47;;;;;;;;;;;23.90;1.00;;;;;;4879886;29;19928;-52
2023/08/24 00:44:14;;;;;;;;;;;23.90;1.00;;;;;;4895497;29;19924;-55
2023/08/24 00:46:41;;;;;;;;;;;23.90;1.00;;;;;;4896641;29;19930;-54
2023/08/24 00:49:08;;;;;;;;;;;23.90;1.00;;;;;;4896285;29;19923;-54
2023/08/24 00:51:35;;;;;;;;;;;23.90;1.00;;;;;;4852931;29;19930;-53
2023/08/24 00:54:01;;;;;;;;;;;23.90;1.00;;;;;;4883510;29;19930;-53
2023/08/24 00:56:29;;;;;;;;;;;23.90;1.00;;;;;;4900159;29;19923;-52
2023/08/24 00:58:57;;;;;;;;;;;23.90;1.00;;;;;;4900274;29;19949;-51
2023/08/24 01:01:24;;;;;;;;;;;23.90;1.00;;;;;;4898704;29;19923;-54
2023/08/24 01:03:51;;;;;;;;;;;23.90;1.00;;;;;;4898733;29;20403;-56
2023/08/24 01:06:18;;;;;;;;;;;23.90;1.00;;;;;;4900556;29;19923;-56
2023/08/24 01:08:45;;;;;;;;;;;23.90;1.00;;;;;;4899987;29;20018;-57
2023/08/24 01:11:17;;;;;;;;;;;23.90;1.00;;;;;;4898629;29;19924;-52
2023/08/24 01:13:58;;;;;;;;;;;23.90;1.00;;;;;;4899814;29;19951;-53
2023/08/24 01:16:27;;;;;;;;;;;23.90;1.00;;;;;;4899694;29;20392;-54
2023/08/24 01:18:59;;;;;;;;;;;23.90;1.00;;;;;;4898612;29;19962;-55
2023/08/24 01:21:26;;;;;;;;;;;23.90;1.00;;;;;;4898410;29;19958;-54
2023/08/24 01:24:11;;;;;;;;;;;23.90;1.00;;;;;;4898447;29;19924;-55
2023/08/24 01:26:39;;;;;;;;;;;23.90;1.00;;;;;;4899990;29;19923;-52
2023/08/24 01:29:07;;;;;;;;;;;23.80;1.00;;;;;;4898399;29;19975;-56
2023/08/24 01:31:33;;;;;;;;;;;23.90;1.00;;;;;;4899414;29;19979;-55
2023/08/24 01:34:01;;;;;;;;;;;23.90;1.00;;;;;;4882673;29;19969;-53
2023/08/24 01:49:40;;;;;;;;;;;23.80;1.00;;;;;;5130505;27;20007;-57
2023/08/24 01:52:08;;;;;;;;;;;23.80;1.00;;;;;;5129940;27;20283;-54
2023/08/24 01:54:35;;;;;;;;;;;23.80;1.00;;;;;;5110200;27;19946;-53
2023/08/24 01:57:04;;;;;;;;;;;23.80;1.00;;;;;;5089527;28;20015;-57
2023/08/24 01:59:31;;;;;;;;;;;23.80;1.00;;;;;;5088108;28;20287;-55
2023/08/24 02:01:58;;;;;;;;;;;23.80;1.00;;;;;;5088197;28;20368;-56
2023/08/24 02:04:25;;;;;;;;;;;23.80;1.00;;;;;;5089348;28;19924;-55
2023/08/24 02:06:51;;;;;;;;;;;23.80;1.00;;;;;;5088005;28;19932;-55
2023/08/24 02:09:18;;;;;;;;;;;23.80;1.00;;;;;;5320880;22;19956;-57
2023/08/24 02:11:45;;;;;;;;;;;23.80;1.00;;;;;;5089134;28;19924;-56
2023/08/24 02:14:12;;;;;;;;;;;23.80;1.00;;;;;;5089262;28;20419;-55
2023/08/24 02:16:39;;;;;;;;;;;23.80;1.00;;;;;;5071536;28;19960;-52
2023/08/24 02:19:06;;;;;;;;;;;23.80;1.00;;;;;;5068904;28;19928;-53
2023/08/24 02:21:35;;;;;;;;;;;23.80;1.00;;;;;;5067294;28;20242;-53
2023/08/24 02:24:01;;;;;;;;;;;23.80;1.00;;;;;;5068838;28;19929;-54
2023/08/24 02:26:30;;;;;;;;;;;23.80;1.00;;;;;;5068624;28;19928;-53
2023/08/24 02:28:57;;;;;;;;;;;23.80;1.00;;;;;;5067335;28;19960;-53
2023/08/24 02:31:24;;;;;;;;;;;23.80;1.00;;;;;;5067197;28;19987;-53
2023/08/24 02:33:51;;;;;;;;;;;23.80;1.00;;;;;;5067422;28;20380;-55
2023/08/24 02:36:18;;;;;;;;;;;23.80;1.00;;;;;;5068435;28;19925;-56
2023/08/24 02:38:44;;;;;;;;;;;23.80;1.00;;;;;;5068456;28;19931;-53
2023/08/24 02:43:47;;;;;;;;;;;23.80;1.00;;;;;;5084033;28;20410;-56
2023/08/24 02:46:14;;;;;;;;;;;23.80;1.00;;;;;;5070326;28;19932;-56
2023/08/24 02:48:41;;;;;;;;;;;23.80;1.00;;;;;;5085653;28;19935;-54
2023/08/24 02:51:08;;;;;;;;;;;23.80;1.00;;;;;;5056919;28;19931;-52
2023/08/24 02:53:36;;;;;;;;;;;23.80;1.00;;;;;;5056932;28;20018;-56
2023/08/24 02:56:03;;;;;;;;;;;23.80;1.00;;;;;;5056949;28;20067;-57
2023/08/24 02:58:30;;;;;;;;;;;23.70;1.00;;;;;;5074703;28;19930;-52
2023/08/24 03:00:57;;;;;;;;;;;23.70;1.00;;;;;;5056806;28;19924;-58
2023/08/24 03:03:25;;;;;;;;;;;23.70;1.00;;;;;;5056580;28;19924;-57
2023/08/24 03:05:53;;;;;;;;;;;23.70;1.00;;;;;;5056610;28;20047;-54
2023/08/24 03:08:20;;;;;;;;;;;23.70;1.00;;;;;;5056719;28;20001;-53
2023/08/24 03:10:47;;;;;;;;;;;23.70;1.00;;;;;;5040581;28;19931;-55
2023/08/24 03:13:13;;;;;;;;;;;23.70;1.00;;;;;;5056458;28;19924;-55
2023/08/24 03:15:41;;;;;;;;;;;23.70;1.00;;;;;;5083286;22;19983;-53
2023/08/24 03:18:10;;;;;;;;;;;23.70;1.00;;;;;;5074557;28;19928;-53
2023/08/24 03:20:36;;;;;;;;;;;23.70;1.00;;;;;;5074511;28;20083;-57
2023/08/24 03:23:03;;;;;;;;;;;23.70;1.00;;;;;;5056572;28;19924;-55
2023/08/24 03:25:31;;;;;;;;;;;23.70;1.00;;;;;;5056277;28;19974;-54
2023/08/24 03:27:58;;;;;;;;;;;23.70;1.00;;;;;;5074256;28;20277;-54
2023/08/24 03:30:26;;;;;;;;;;;23.70;1.00;;;;;;5056231;28;19928;-56
2023/08/24 03:32:53;;;;;;;;;;;23.70;1.00;;;;;;5056230;28;20375;-54
2023/08/24 03:35:20;;;;;;;;;;;23.70;1.00;;;;;;5056185;28;19932;-53
2023/08/24 03:37:47;;;;;;;;;;;23.60;1.00;;;;;;5074086;28;19975;-55
2023/08/24 03:40:14;;;;;;;;;;;23.60;1.00;;;;;;5074103;28;19974;-53
2023/08/24 03:42:41;;;;;;;;;;;23.60;1.00;;;;;;5056075;28;20429;-56
2023/08/24 03:45:08;;;;;;;;;;;23.60;1.00;;;;;;5172848;22;19929;-57
2023/08/24 03:47:34;;;;;;;;;;;23.60;1.00;;;;;;5053895;28;19925;-55
2023/08/24 03:50:01;;;;;;;;;;;23.60;1.00;;;;;;5053822;28;19928;-54
2023/08/24 03:52:28;;;;;;;;;;;23.60;1.00;;;;;;5052299;28;20281;-54
2023/08/24 03:54:55;;;;;;;;;;;23.60;1.00;;;;;;5052509;28;20024;-54
2023/08/24 03:57:21;;;;;;;;;;;23.60;1.00;;;;;;5052430;28;19936;-53
2023/08/24 03:59:48;;;;;;;;;;;23.60;1.00;;;;;;5052378;28;19925;-56
2023/08/24 04:02:16;;;;;;;;;;;23.60;1.00;;;;;;5051343;28;20091;-56
2023/08/24 04:04:43;;;;;;;;;;;23.60;1.00;;;;;;5052224;28;19925;-54
2023/08/24 04:07:09;;;;;;;;;;;23.60;1.00;;;;;;5052273;28;19932;-58
2023/08/24 04:09:36;;;;;;;;;;;23.60;1.00;;;;;;5053418;28;19932;-51
2023/08/24 04:12:03;;;;;;;;;;;23.60;1.00;;;;;;5051841;28;20400;-54
2023/08/24 04:14:30;;;;;;;;;;;23.60;1.00;;;;;;5053533;28;20363;-55
2023/08/24 04:16:56;;;;;;;;;;;23.60;1.00;;;;;;5052642;22;19925;-53
2023/08/24 04:19:23;;;;;;;;;;;23.60;1.00;;;;;;5015629;28;19925;-53
2023/08/24 04:21:50;;;;;;;;;;;23.60;1.00;;;;;;5016803;28;19932;-54
2023/08/24 04:24:17;;;;;;;;;;;23.60;1.00;;;;;;5033353;28;20616;-56
2023/08/24 04:26:43;;;;;;;;;;;23.60;1.00;;;;;;5033032;28;19931;-53
2023/08/24 04:29:10;;;;;;;;;;;23.60;1.00;;;;;;5033261;28;19925;-55
2023/08/24 04:31:37;;;;;;;;;;;23.60;1.00;;;;;;5032832;28;19933;-54
2023/08/24 04:34:04;;;;;;;;;;;23.60;1.00;;;;;;5032665;28;19925;-58
2023/08/24 04:36:31;;;;;;;;;;;23.60;1.00;;;;;;5015464;28;20359;-56
2023/08/24 04:38:58;;;;;;;;;;;23.50;1.00;;;;;;5020291;28;19925;-54
2023/08/24 04:41:24;;;;;;;;;;;23.50;1.00;;;;;;5008081;28;19926;-57
2023/08/24 04:43:51;;;;;;;;;;;23.50;1.00;;;;;;5005685;28;19925;-56
2023/08/24 04:48:52;;;;;;;;;;;23.50;1.00;;;;;;4995239;28;20024;-53
2023/08/24 04:51:19;;;;;;;;;;;23.50;1.00;;;;;;4999488;28;20385;-54
2023/08/24 04:53:46;;;;;;;;;;;23.40;1.00;;;;;;5004354;28;20008;-57
2023/08/24 04:56:12;;;;;;;;;;;23.40;1.00;;;;;;5019299;28;19925;-54
2023/08/24 04:58:39;;;;;;;;;;;23.40;1.00;;;;;;5030337;28;19960;-54
2023/08/24 05:01:06;;;;;;;;;;;23.40;1.00;;;;;;5018987;28;19933;-56
2023/08/24 05:03:35;;;;;;;;;;;23.40;1.00;;;;;;5021275;28;19948;-54
2023/08/24 05:06:02;;;;;;;;;;;23.40;1.00;;;;;;5020849;28;19925;-55
2023/08/24 05:08:29;;;;;;;;;;;23.40;1.00;;;;;;5028773;28;19925;-56
2023/08/24 05:10:55;;;;;;;;;;;23.30;1.00;;;;;;5020147;28;19972;-51
2023/08/24 05:13:22;;;;;;;;;;;23.30;1.00;;;;;;5027386;28;19925;-54
2023/08/24 05:15:49;;;;;;;;;;;23.30;1.00;;;;;;5018034;28;19968;-55
2023/08/24 05:20:57;;;;;;;;;;;23.30;1.00;;;;;;4967185;28;19941;-55
2023/08/24 05:23:24;;;;;;;;;;;23.30;1.00;;;;;;4972920;28;20389;-56
2023/08/24 05:25:51;;;;;;;;;;;23.30;1.00;;;;;;4969188;28;19926;-53
2023/08/24 05:28:18;;;;;;;;;;;23.30;1.00;;;;;;4972054;28;19934;-56
2023/08/24 05:30:44;;;;;;;;;;;23.30;1.00;;;;;;4973299;28;19926;-55
2023/08/24 05:33:11;;;;;;;;;;;23.20;1.00;;;;;;4972501;28;20015;-55
2023/08/24 05:35:38;;;;;;;;;;;23.20;1.00;;;;;;4972780;28;20412;-55
2023/08/24 05:38:05;;;;;;;;;;;23.20;1.00;;;;;;4972253;28;19926;-55
2023/08/24 05:40:33;;;;;;;;;;;23.20;1.00;;;;;;4973258;28;19926;-52
2023/08/24 05:43:00;;;;;;;;;;;23.20;1.00;;;;;;4963932;28;19980;-54
2023/08/24 05:45:26;;;;;;;;;;;23.20;1.00;;;;;;4972110;28;19984;-54
2023/08/24 05:47:53;;;;;;;;;;;23.20;1.00;;;;;;4975531;28;19930;-51
2023/08/24 05:50:20;;;;;;;;;;;23.20;1.00;;;;;;5106866;23;20357;-55
2023/08/24 05:52:47;;;;;;;;;;;23.20;1.00;;;;;;4955177;28;19930;-54
2023/08/24 05:55:14;;;;;;;;;;;23.20;1.00;;;;;;4973148;28;19980;-52
2023/08/24 05:57:41;;;;;;;;;;;23.20;1.00;;;;;;4973234;28;20417;-51
2023/08/24 06:00:09;;;;;;;;;;;23.20;1.00;;;;;;4973175;28;19926;-52
2023/08/24 06:02:41;;;;;;;;;;;23.20;1.00;;;;;;4973026;28;19934;-54
2023/08/24 06:05:08;;;;;;;;;;;23.20;1.00;;;;;;4973193;28;19926;-55
2023/08/24 06:07:35;;;;;;;;;;;23.30;1.00;;;;;;4972880;28;19992;-54
2023/08/24 06:10:02;;;;;;;;;;;23.30;1.00;;;;;;4973044;28;19933;-56
2023/08/24 06:12:28;;;;;;;;;;;23.30;1.00;;;;;;4963671;28;19926;-51
2023/08/24 06:14:55;;;;;;;;;;;23.30;1.00;;;;;;4945134;28;20318;-53
2023/08/24 06:17:23;;;;;;;;;;;23.30;1.00;;;;;;4949495;28;19930;-55
2023/08/24 06:19:50;;;;;;;;;;;23.30;1.00;;;;;;5005802;23;19945;-54
2023/08/24 06:22:16;;;;;;;;;;;23.30;1.00;;;;;;4998606;28;20038;-56
2023/08/24 06:24:43;;;;;;;;;;;23.30;1.00;;;;;;4993348;28;20013;-53
2023/08/24 06:27:10;;;;;;;;;;;23.30;1.00;;;;;;4996272;28;20020;-53
2023/08/24 06:29:37;;;;;;;;;;;23.30;1.00;;;;;;4995887;28;20393;-53
2023/08/24 06:32:04;;;;;;;;;;;23.30;1.00;;;;;;4995835;28;20026;-50
2023/08/24 06:34:31;;;;;;;;;;;23.30;1.00;;;;;;4996075;28;19932;-55
2023/08/24 06:37:00;;;;;;;;;;;23.30;1.00;;;;;;4995913;28;19932;-53
2023/08/24 06:39:27;;;;;;;;;;;23.30;1.00;;;;;;4995807;28;20390;-54
2023/08/24 06:41:53;;;;;;;;;;;23.40;1.00;;;;;;4995630;28;20013;-51
2023/08/24 06:44:24;;;;;;;;;;;23.40;1.00;;;;;;4994641;28;20004;-52
2023/08/24 06:46:51;;;;;;;;;;;23.40;1.00;;;;;;4995649;28;19968;-55
2023/08/24 06:49:19;;;;;;;;;;;23.40;1.00;;;;;;4995783;28;19926;-54
2023/08/24 06:51:45;;;;;;;;;;;23.40;1.00;;;;;;4995746;28;19983;-56
2023/08/24 06:54:14;;;;;;;;;;;23.40;1.00;;;;;;4995603;28;19926;-53
2023/08/24 06:56:41;;;;;;;;;;;23.40;1.00;;;;;;4995557;28;19925;-57
2023/08/24 06:59:09;;;;;;;;;;;23.40;1.00;;;;;;4995475;28;19969;-54
2023/08/24 07:01:35;;;;;;;;;;;23.40;1.00;;;;;;4995302;28;19926;-56
2023/08/24 07:04:02;;;;;;;;;;;23.40;1.00;;;;;;4995779;28;20385;-52
2023/08/24 07:06:29;;;;;;;;;;;23.40;1.00;;;;;;4995401;28;19933;-52
2023/08/24 07:08:56;;;;;;;;;;;23.40;1.00;;;;;;4995321;28;19926;-55
2023/08/24 07:11:23;;;;;;;;;;;23.40;1.00;;;;;;4995226;28;19926;-55
2023/08/24 07:13:50;;;;;;;;;;;23.50;1.00;;;;;;4995106;28;20027;-53
2023/08/24 07:16:17;;;;;;;;;;;23.50;1.00;;;;;;4995291;28;19926;-52
2023/08/24 07:18:44;;;;;;;;;;;23.50;1.00;;;;;;4994980;28;19926;-54
2023/08/24 07:24:08;;;;;;;;;;;23.50;1.00;;;;;;4973958;28;19981;-56
2023/08/24 07:26:35;;;;;;;;;;;23.50;1.00;;;;;;4975292;28;19926;-52
2023/08/24 07:29:01;;;;;;;;;;;23.50;1.00;;;;;;4975538;28;19926;-53
2023/08/24 07:31:28;;;;;;;;;;;23.60;1.00;;;;;;4975631;28;19926;-54
2023/08/24 07:33:55;;;;;;;;;;;23.60;1.00;;;;;;4975241;28;19926;-55
2023/08/24 07:36:21;;;;;;;;;;;23.60;1.00;;;;;;4975327;28;19933;-55
2023/08/24 07:38:48;;;;;;;;;;;23.60;1.00;;;;;;4975194;28;20017;-54
2023/08/24 07:41:17;;;;;;;;;;;23.60;1.00;;;;;;4975332;28;20405;-54
2023/08/24 07:43:44;;;;;;;;;;;23.60;1.00;;;;;;4975243;28;19926;-51
2023/08/24 07:46:10;;;;;;;;;;;23.60;1.00;;;;;;4974024;28;20036;-54
2023/08/24 07:48:37;;;;;;;;;;;23.60;1.00;;;;;;4975262;28;19927;-51
2023/08/24 07:51:04;;;;;;;;;;;23.60;1.00;;;;;;4975189;28;19926;-57
2023/08/24 07:53:32;;;;;;;;;;;23.60;1.00;;;;;;5093252;23;20019;-54
2023/08/24 07:56:01;;;;;;;;;;;23.60;1.00;;;;;;4992333;28;19950;-56
2023/08/24 07:58:28;;;;;;;;;;;23.60;1.00;;;;;;4994396;28;19949;-55
2023/08/24 08:00:54;;;;;;;;;;;23.70;1.00;;;;;;4994371;28;20273;-49
2023/08/24 08:03:21;;;;;;;;;;;23.70;1.00;;;;;;4994314;28;20035;-54
2023/08/24 08:05:48;;;;;;;;;;;23.70;1.00;;;;;;4994152;28;19933;-54
2023/08/24 08:08:15;;;;;;;;;;;23.70;1.00;;;;;;4994680;28;19969;-53
2023/08/24 08:10:42;;;;;;;;;;;23.70;1.00;;;;;;4994224;28;19945;-52
2023/08/24 08:13:11;;;;;;;;;;;23.70;1.00;;;;;;4993915;28;19934;-54
2023/08/24 08:15:39;;;;;;;;;;;23.70;1.00;;;;;;4994124;28;20028;-52
2023/08/24 08:18:05;;;;;;;;;;;23.70;1.00;;;;;;4993853;28;19925;-55
2023/08/24 08:20:32;;;;;;;;;;;23.70;1.00;;;;;;4993977;28;19933;-54
2023/08/24 08:22:59;;;;;;;;;;;23.70;1.00;;;;;;4993757;28;19961;-55
2023/08/24 08:25:26;;;;;;;;;;;23.70;1.00;;;;;;5054627;23;19961;-53
2023/08/24 08:27:53;;;;;;;;;;;23.70;1.00;;;;;;4993730;28;19925;-52
2023/08/24 08:30:20;;;;;;;;;;;23.70;1.00;;;;;;4993939;28;20016;-55
2023/08/24 08:32:47;;;;;;;;;;;23.70;1.00;;;;;;4993621;28;19926;-53
2023/08/24 08:35:13;;;;;;;;;;;23.70;1.00;;;;;;5013238;28;19933;-52
2023/08/24 08:37:40;;;;;;;;;;;23.70;1.00;;;;;;5013351;28;20016;-53
2023/08/24 08:40:09;;;;;;;;;;;23.70;1.00;;;;;;5013148;28;19925;-55
2023/08/24 08:42:36;;;;;;;;;;;23.70;1.00;;;;;;5013041;28;19925;-53
2023/08/24 08:45:07;;;;;;;;;;;23.70;1.00;;;;;;5013119;28;19972;-54
2023/08/24 08:47:34;;;;;;;;;;;23.70;1.00;;;;;;5012668;28;20411;-54
2023/08/24 08:50:03;;;;;;;;;;;23.70;1.00;;;;;;5013088;28;19929;-54
2023/08/24 08:52:29;;;;;;;;;;;23.70;1.00;;;;;;5012905;28;19932;-54
2023/08/24 08:54:56;;;;;;;;;;;23.70;1.00;;;;;;5082026;22;19933;-54
2023/08/24 08:57:24;;;;;;;;;;;23.70;1.00;;;;;;4997589;28;20321;-55
2023/08/24 08:59:52;;;;;;;;;;;23.70;1.00;;;;;;5001113;28;19932;-56
2023/08/24 09:02:19;;;;;;;;;;;23.70;1.00;;;;;;5012767;28;20180;-57
2023/08/24 09:04:47;;;;;;;;;;;23.70;1.00;;;;;;5012780;28;19933;-52
2023/08/24 09:07:14;;;;;;;;;;;23.70;1.00;;;;;;5004922;28;20300;-53
2023/08/24 09:09:41;;;;;;;;;;;23.70;1.00;;;;;;5012729;28;19929;-55
2023/08/24 09:12:07;;;;;;;;;;;23.70;1.00;;;;;;4982957;28;19925;-55
2023/08/24 09:14:34;;;;;;;;;;;23.70;1.00;;;;;;4998629;28;19931;-57
2023/08/24 09:17:02;;;;;;;;;;;23.70;1.00;;;;;;5012711;28;19932;-53
2023/08/24 09:19:29;;;;;;;;;;;23.60;1.00;;;;;;5012582;28;20364;-57
2023/08/24 09:21:57;;;;;;;;;;;23.70;1.00;;;;;;5012474;28;19932;-56
2023/08/24 09:24:31;;;;;;;;;;;23.60;1.00;;;;;;5012697;28;19929;-56
2023/08/24 09:26:57;;;;;;;;;;;23.60;1.00;;;;;;5580280;23;19933;-55
2023/08/24 09:29:24;;;;;;;;;;;23.60;1.00;;;;;;5012527;28;19965;-57
2023/08/24 09:31:51;;;;;;;;;;;23.60;1.00;;;;;;5012502;28;20042;-55
2023/08/24 09:34:20;;;;;;;;;;;23.60;1.00;;;;;;5011295;28;19930;-54
2023/08/24 09:36:47;;;;;;;;;;;23.60;1.00;;;;;;5012532;28;19961;-54
2023/08/24 09:39:16;;;;;;;;;;;23.60;1.00;;;;;;4997700;28;20400;-56
2023/08/24 09:41:50;;;;;;;;;;;23.60;1.00;;;;;;5012366;28;20300;-52
2023/08/24 09:44:17;;;;;;;;;;;23.60;1.00;;;;;;5008758;28;19940;-57
2023/08/24 09:46:44;;;;;;;;;;;23.60;1.00;;;;;;5011880;28;20377;-53
2023/08/24 09:49:11;;;;;;;;;;;23.60;1.00;;;;;;5012109;28;20389;-54
2023/08/24 09:51:39;;;;;;;;;;;23.60;1.00;;;;;;5012334;28;19936;-57
2023/08/24 09:54:08;;;;;;;;;;;23.60;1.00;;;;;;5012242;28;19968;-56
2023/08/24 09:56:39;;;;;;;;;;;23.60;1.00;;;;;;5011954;28;19988;-55
2023/08/24 09:59:17;;;;;;;;;;;23.60;1.00;;;;;;5538966;22;19923;-53
2023/08/24 10:01:47;;;;;;;;;;;23.60;1.00;;;;;;4996490;28;19926;-54
2023/08/24 10:04:15;;;;;;;;;;;23.60;1.00;;;;;;4996478;28;19932;-57
2023/08/24 10:06:42;;;;;;;;;;;23.60;1.00;;;;;;4996282;28;19929;-55
2023/08/24 10:09:11;;;;;;;;;;;23.60;1.00;;;;;;4996453;28;19926;-57
2023/08/24 10:11:42;;;;;;;;;;;23.60;1.00;;;;;;4995407;28;20145;-55
2023/08/24 10:14:44;;;;;;;;;;;23.60;1.00;;;;;;4996247;28;20381;-56
2023/08/24 10:17:11;;;;;;;;;;;23.60;1.00;;;;;;4935860;29;19933;-56
2023/08/24 10:19:42;;;;;;;;;;;23.60;1.00;;;;;;4985358;28;19926;-55
2023/08/24 10:22:09;;;;;;;;;;;23.60;1.00;;;;;;4996145;28;19972;-53
2023/08/24 10:24:36;;;;;;;;;;;23.60;1.00;;;;;;4996192;28;19926;-56
2023/08/24 10:27:04;;;;;;;;;;;23.60;1.00;;;;;;4996062;28;20301;-56
2023/08/24 10:29:30;;;;;;;;;;;23.60;1.00;;;;;;4970340;28;19932;-57
2023/08/24 10:31:58;;;;;;;;;;;23.60;1.00;;;;;;5488947;23;19930;-50
2023/08/24 10:34:25;;;;;;;;;;;23.60;1.00;;;;;;5033992;28;19925;-55
2023/08/24 10:36:52;;;;;;;;;;;23.50;1.00;;;;;;5035260;28;20432;-55
2023/08/24 10:39:26;;;;;;;;;;;23.60;1.00;;;;;;5035124;28;20369;-57
2023/08/24 10:41:53;;;;;;;;;;;23.50;1.00;;;;;;5035151;28;19925;-56
2023/08/24 10:44:21;;;;;;;;;;;23.50;1.00;;;;;;5035196;28;19930;-56
2023/08/24 10:47:07;;;;;;;;;;;23.50;1.00;;;;;;5029043;28;19925;-55
2023/08/24 10:49:33;;;;;;;;;;;23.50;1.00;;;;;;5020769;28;19929;-53
2023/08/24 10:52:19;;;;;;;;;;;23.50;1.00;;;;;;5035023;28;20289;-55
2023/08/24 10:54:48;;;;;;;;;;;23.50;1.00;;;;;;5035009;28;19931;-53
2023/08/24 10:57:22;;;;;;;;;;;23.50;1.00;;;;;;5035025;28;19979;-55
2023/08/24 11:00:10;;;;;;;;;;;23.50;1.00;;;;;;5034811;28;20015;-56
2023/08/24 11:02:43;;;;;;;;;;;23.50;1.00;;;;;;5034842;28;19925;-54
2023/08/24 11:05:21;;;;;;;;;;;23.50;1.00;;;;;;5186697;22;20415;-54
2023/08/24 11:07:49;;;;;;;;;;;23.50;1.00;;;;;;4995409;28;20006;-53
2023/08/24 11:10:16;;;;;;;;;;;23.50;1.00;;;;;;4994936;28;19930;-52
2023/08/24 11:13:15;;;;;;;;;;;23.50;1.00;;;;;;4977736;28;19926;-54
2023/08/24 11:15:42;;;;;;;;;;;23.50;1.00;;;;;;4952304;28;19929;-52
2023/08/24 11:18:12;;;;;;;;;;;23.50;1.00;;;;;;4995112;28;20293;-57
2023/08/24 11:20:42;;;;;;;;;;;23.50;1.00;;;;;;4995227;28;19973;-52
2023/08/24 11:23:09;;;;;;;;;;;23.50;1.00;;;;;;4995029;28;19932;-51
2023/08/24 11:25:36;;;;;;;;;;;23.50;1.00;;;;;;4995133;28;20405;-57
2023/08/24 11:28:03;;;;;;;;;;;23.50;1.00;;;;;;4995062;28;20389;-55
2023/08/24 11:30:31;;;;;;;;;;;23.50;1.00;;;;;;4994866;28;19930;-54
2023/08/24 11:32:57;;;;;;;;;;;23.50;1.00;;;;;;4994842;28;20246;-55
2023/08/24 11:35:24;;;;;;;;;;;23.50;1.00;;;;;;5112680;23;20020;-57
2023/08/24 11:37:57;;;;;;;;;;;23.50;1.00;;;;;;5014112;28;19937;-57
2023/08/24 11:40:27;;;;;;;;;;;23.50;1.00;;;;;;5014475;28;19929;-56
2023/08/24 11:42:55;;;;;;;;;;;23.50;1.00;;;;;;5014195;28;19926;-54
2023/08/24 11:45:22;;;;;;;;;;;23.50;1.00;;;;;;5014239;28;19929;-55
2023/08/24 11:47:50;;;;;;;;;;;23.50;1.00;;;;;;5014275;28;19952;-56
2023/08/24 11:50:17;;;;;;;;;;;23.50;1.00;;;;;;5006119;28;19926;-54
2023/08/24 11:52:44;;;;;;;;;;;23.50;1.00;;;;;;5013587;28;19926;-57
2023/08/24 11:55:11;;;;;;;;;;;23.50;1.00;;;;;;5013699;28;19925;-56
2023/08/24 11:57:38;;;;;;;;;;;23.50;1.00;;;;;;5014107;28;19925;-55
2023/08/24 12:00:05;;;;;;;;;;;23.50;1.00;;;;;;5014015;28;19932;-53
2023/08/24 12:02:33;;;;;;;;;;;23.50;1.00;;;;;;5013819;28;19976;-56
2023/08/24 12:05:02;;;;;;;;;;;23.50;1.00;;;;;;5155343;22;19920;-52
2023/08/24 12:07:29;;;;;;;;;;;23.50;1.00;;;;;;5010624;28;19976;-55
2023/08/24 12:10:01;;;;;;;;;;;23.50;1.00;;;;;;5000798;28;20397;-54
2023/08/24 12:12:28;;;;;;;;;;;23.50;1.00;;;;;;5013739;28;19972;-56
2023/08/24 12:14:57;;;;;;;;;;;23.50;1.00;;;;;;5013686;28;19925;-56
2023/08/24 12:17:24;;;;;;;;;;;23.50;1.00;;;;;;5013602;28;19925;-56
2023/08/24 12:19:59;;;;;;;;;;;23.50;1.00;;;;;;5013576;28;19933;-52
2023/08/24 12:22:27;;;;;;;;;;;23.50;1.00;;;;;;4995267;28;19932;-56
2023/08/24 12:24:54;;;;;;;;;;;23.50;1.00;;;;;;5013620;28;19936;-53
2023/08/24 12:27:25;;;;;;;;;;;23.40;1.00;;;;;;5013441;28;20016;-57
2023/08/24 12:29:52;;;;;;;;;;;23.50;1.00;;;;;;5014008;28;19925;-54
2023/08/24 12:32:20;;;;;;;;;;;23.50;1.00;;;;;;5013320;28;19929;-54
2023/08/24 12:34:47;;;;;;;;;;;23.50;1.00;;;;;;5013759;28;19933;-56
2023/08/24 12:37:14;;;;;;;;;;;23.50;1.00;;;;;;5500911;23;19950;-55
2023/08/24 12:39:41;;;;;;;;;;;23.50;1.00;;;;;;5031706;28;19964;-54
2023/08/24 12:42:07;;;;;;;;;;;23.50;1.00;;;;;;5032969;28;19929;-56
2023/08/24 12:44:36;;;;;;;;;;;23.50;1.00;;;;;;5032990;28;20341;-52
2023/08/24 12:47:03;;;;;;;;;;;23.50;1.00;;;;;;5033103;28;20335;-56
2023/08/24 12:49:30;;;;;;;;;;;23.50;1.00;;;;;;5032798;28;19983;-53
2023/08/24 12:51:56;;;;;;;;;;;23.40;1.00;;;;;;5026971;28;20452;-55
2023/08/24 12:54:24;;;;;;;;;;;23.50;1.00;;;;;;5030789;28;20281;-55
2023/08/24 12:56:51;;;;;;;;;;;23.50;1.00;;;;;;5032903;28;20325;-57
2023/08/24 12:59:18;;;;;;;;;;;23.50;1.00;;;;;;5032754;28;19925;-55
2023/08/24 13:01:45;;;;;;;;;;;23.50;1.00;;;;;;5033142;28;19976;-55
2023/08/24 13:04:12;;;;;;;;;;;23.40;1.00;;;;;;5032486;28;19933;-56
2023/08/24 13:06:39;;;;;;;;;;;23.50;1.00;;;;;;5032546;28;19932;-58
2023/08/24 13:09:06;;;;;;;;;;;23.50;1.00;;;;;;5347159;22;19925;-55
2023/08/24 13:11:33;;;;;;;;;;;23.40;1.00;;;;;;4995071;28;19925;-55
2023/08/24 13:13:59;;;;;;;;;;;23.40;1.00;;;;;;5012906;28;20300;-53
2023/08/24 13:16:27;;;;;;;;;;;23.40;1.00;;;;;;5012700;28;19968;-55
2023/08/24 13:18:54;;;;;;;;;;;23.40;1.00;;;;;;5012940;28;19961;-55
2023/08/24 13:21:22;;;;;;;;;;;23.40;1.00;;;;;;5012772;28;20305;-56
2023/08/24 13:23:49;;;;;;;;;;;23.40;1.00;;;;;;5012541;28;20294;-56
2023/08/24 13:26:19;;;;;;;;;;;23.40;1.00;;;;;;5012696;28;19983;-57
2023/08/24 13:28:49;;;;;;;;;;;23.40;1.00;;;;;;5012680;28;19929;-54
2023/08/24 13:31:17;;;;;;;;;;;23.40;1.00;;;;;;5012676;28;19925;-56
2023/08/24 13:33:46;;;;;;;;;;;23.40;1.00;;;;;;5012280;28;19926;-54
2023/08/24 13:36:13;;;;;;;;;;;23.40;1.00;;;;;;5012922;28;20020;-56
2023/08/24 13:38:40;;;;;;;;;;;23.40;1.00;;;;;;5013045;28;20007;-55
2023/08/24 13:43:52;;;;;;;;;;;23.40;1.00;;;;;;5027884;28;19933;-57
2023/08/24 13:46:19;;;;;;;;;;;23.40;1.00;;;;;;5028546;28;19929;-56
2023/08/24 13:48:46;;;;;;;;;;;23.40;1.00;;;;;;5031123;28;20081;-53
2023/08/24 13:51:12;;;;;;;;;;;23.40;1.00;;;;;;5031291;28;19929;-56
2023/08/24 13:53:41;;;;;;;;;;;23.40;1.00;;;;;;5041998;28;20308;-55
2023/08/24 13:56:07;;;;;;;;;;;23.40;1.00;;;;;;5052283;28;20364;-57
2023/08/24 13:58:34;;;;;;;;;;;23.40;1.00;;;;;;5034138;28;19932;-54
2023/08/24 14:01:02;;;;;;;;;;;23.40;1.00;;;;;;5051893;28;20002;-57
2023/08/24 14:03:29;;;;;;;;;;;23.40;1.00;;;;;;5051590;28;20344;-56
2023/08/24 14:05:56;;;;;;;;;;;23.40;1.00;;;;;;5051930;28;19924;-51
2023/08/24 14:08:23;;;;;;;;;;;23.40;1.00;;;;;;5051928;28;19933;-57
2023/08/24 14:10:51;;;;;;;;;;;23.40;1.00;;;;;;5051839;28;19964;-56
2023/08/24 14:16:04;;;;;;;;;;;23.40;1.00;;;;;;5005919;28;19926;-56
2023/08/24 14:18:31;;;;;;;;;;;23.40;1.00;;;;;;5002788;28;20274;-53
2023/08/24 14:20:57;;;;;;;;;;;23.40;1.00;;;;;;5010695;28;19995;-57
2023/08/24 14:23:24;;;;;;;;;;;23.40;1.00;;;;;;5010160;28;20364;-54
2023/08/24 14:25:51;;;;;;;;;;;23.40;1.00;;;;;;5010101;28;19925;-55
2023/08/24 14:28:18;;;;;;;;;;;23.40;1.00;;;;;;5011362;28;19929;-55
2023/08/24 14:30:45;;;;;;;;;;;23.40;1.00;;;;;;5010459;28;20029;-53
2023/08/24 14:33:12;;;;;;;;;;;23.40;1.00;;;;;;5011286;28;19925;-51
2023/08/24 14:35:38;;;;;;;;;;;23.40;1.00;;;;;;5015486;28;19926;-52
2023/08/24 14:38:05;;;;;;;;;;;23.40;1.00;;;;;;5004351;28;19926;-56
2023/08/24 14:40:32;;;;;;;;;;;23.40;1.00;;;;;;5003508;28;19952;-55
2023/08/24 14:42:58;;;;;;;;;;;23.40;1.00;;;;;;5010174;28;19931;-55
2023/08/24 14:45:25;;;;;;;;;;;23.40;1.00;;;;;;5022303;28;19932;-56
2023/08/24 14:47:52;;;;;;;;;;;23.40;1.00;;;;;;5014360;28;19926;-53
2023/08/24 14:50:19;;;;;;;;;;;23.40;1.00;;;;;;5015312;28;20048;-55
2023/08/24 14:52:46;;;;;;;;;;;23.40;1.00;;;;;;5023772;28;19933;-52
2023/08/24 14:55:13;;;;;;;;;;;23.40;1.00;;;;;;5023963;28;20005;-58
2023/08/24 14:57:40;;;;;;;;;;;23.40;1.00;;;;;;5003469;28;19929;-58
2023/08/24 15:00:09;;;;;;;;;;;23.40;1.00;;;;;;5003198;28;19926;-54
2023/08/24 15:02:41;;;;;;;;;;;23.40;1.00;;;;;;4998044;28;19925;-55